createdAt,value
2023-02-08T00:01:56.161Z,22.23
2023-02-08T00:04:28.752Z,23.37
2023-02-08T00:06:59.172Z,17.23
2023-02-08T00:09:29.122Z,23.07
2023-02-08T00:11:59.055Z,17.37
2023-02-08T00:14:29.093Z,22.17
2023-02-08T00:16:59.096Z,19.37
2023-02-08T00:19:31.697Z,22.90
2023-02-08T00:22:01.619Z,19.20
2023-02-08T00:24:31.881Z,22.37
2023-02-08T00:27:01.895Z,19.13
2023-02-08T00:29:31.845Z,18.17
2023-02-08T00:32:02.160Z,17.27
2023-02-08T00:34:35.266Z,14.93
2023-02-08T00:37:05.213Z,15.10
2023-02-08T00:39:35.200Z,18.77
2023-02-08T00:42:05.161Z,15.57
2023-02-08T00:44:35.953Z,20.83
2023-02-08T00:47:05.951Z,13.87
2023-02-08T00:49:38.452Z,16.70
2023-02-08T00:52:08.558Z,18.10
2023-02-08T00:54:38.806Z,13.43
2023-02-08T00:57:08.705Z,17.70
2023-02-08T00:59:38.912Z,13.20
2023-02-08T01:02:09.453Z,13.90
2023-02-08T01:04:42.063Z,11.27
2023-02-08T01:07:12.316Z,16.13
2023-02-08T01:09:42.649Z,12.13
2023-02-08T01:12:12.882Z,13.57
2023-02-08T01:14:43.836Z,16.97
2023-02-08T01:17:13.821Z,16.57
2023-02-08T01:19:46.424Z,16.27
2023-02-08T01:22:16.329Z,13.90
2023-02-08T01:24:46.652Z,11.50
2023-02-08T01:27:16.920Z,13.60
2023-02-08T01:29:47.188Z,13.00
2023-02-08T01:32:17.161Z,12.93
2023-02-08T01:34:49.708Z,15.20
2023-02-08T01:37:19.622Z,14.50
2023-02-08T01:39:50.781Z,10.47
2023-02-08T01:42:21.853Z,14.73
2023-02-08T01:45:26.350Z,11.37
2023-02-08T01:48:01.379Z,11.00
2023-02-08T01:50:39.683Z,11.47
2023-02-08T01:53:09.923Z,10.43
2023-02-08T01:55:45.940Z,13.87
2023-02-08T01:58:17.683Z,16.33
2023-02-08T02:00:48.463Z,11.30
2023-02-08T02:03:20.498Z,14.37
2023-02-08T02:05:58.710Z,10.67
2023-02-08T02:08:28.902Z,17.30
2023-02-08T02:10:59.034Z,12.17
2023-02-08T02:13:31.072Z,16.30
2023-02-08T02:16:01.393Z,11.90
2023-02-08T02:18:36.227Z,15.10
2023-02-08T02:21:28.894Z,19.10
2023-02-08T02:24:32.049Z,15.00
2023-02-08T02:27:16.980Z,11.00
2023-02-08T02:32:49.417Z,10.50
2023-02-08T02:35:27.969Z,11.33
2023-02-08T02:38:06.740Z,13.07
2023-02-08T02:40:47.516Z,11.30
2023-02-08T02:43:33.624Z,11.30
2023-02-08T02:46:10.561Z,12.77
2023-02-08T02:48:50.273Z,12.77
2023-02-08T02:51:25.177Z,10.50
2023-02-08T02:54:00.577Z,9.70
2023-02-08T02:56:35.320Z,10.80
2023-02-08T02:59:08.922Z,14.50
2023-02-08T03:01:39.379Z,15.90
2023-02-08T03:04:19.189Z,12.70
2023-02-08T03:07:05.817Z,10.27
2023-02-08T03:09:53.244Z,12.77
2023-02-08T03:12:33.270Z,12.07
2023-02-08T03:15:16.555Z,12.20
2023-02-08T03:18:01.572Z,12.47
2023-02-08T03:20:38.579Z,11.57
2023-02-08T03:23:16.983Z,16.63
2023-02-08T03:25:53.795Z,14.67
2023-02-08T03:28:27.958Z,20.03
2023-02-08T03:31:06.277Z,16.45
2023-02-08T03:33:40.246Z,11.73
2023-02-08T03:36:23.145Z,12.48
2023-02-08T03:38:55.423Z,12.27
2023-02-08T03:41:29.527Z,12.67
2023-02-08T03:44:04.154Z,13.13
2023-02-08T03:46:38.401Z,10.67
2023-02-08T03:49:14.070Z,12.68
2023-02-08T03:51:48.168Z,13.57
2023-02-08T03:54:21.880Z,11.35
2023-02-08T03:56:57.256Z,10.98
2023-02-08T03:59:30.449Z,15.40
2023-02-08T04:02:02.527Z,14.50
2023-02-08T04:04:42.258Z,15.17
2023-02-08T04:07:14.933Z,19.30
2023-02-08T04:09:45.026Z,17.97
2023-02-08T04:12:15.150Z,14.27
2023-02-08T04:14:45.523Z,17.67
2023-02-08T04:17:15.474Z,14.30
2023-02-08T04:19:45.458Z,12.03
2023-02-08T04:22:17.955Z,14.47
2023-02-08T04:24:48.204Z,13.80
2023-02-08T04:27:18.472Z,15.90
2023-02-08T04:29:48.663Z,18.83
2023-02-08T04:32:18.739Z,13.37
2023-02-08T04:34:48.748Z,17.30
2023-02-08T04:37:21.449Z,18.17
2023-02-08T04:39:51.711Z,20.30
2023-02-08T04:42:21.720Z,22.00
2023-02-08T04:44:52.140Z,16.97
2023-02-08T04:47:22.896Z,16.27
2023-02-08T04:49:52.930Z,19.00
2023-02-08T04:52:25.613Z,21.63
2023-02-08T04:54:55.855Z,13.93
2023-02-08T04:57:26.210Z,23.90
2023-02-08T04:59:56.582Z,18.90
2023-02-08T05:02:27.873Z,15.70
2023-02-08T05:04:58.253Z,17.07
2023-02-08T05:07:31.041Z,18.80
2023-02-08T05:10:01.019Z,14.10
2023-02-08T05:12:31.134Z,19.50
2023-02-08T05:15:01.510Z,19.07
2023-02-08T05:17:31.946Z,15.57
2023-02-08T05:20:01.994Z,18.30
2023-02-08T05:22:34.782Z,19.97
2023-02-08T05:25:05.093Z,15.17
2023-02-08T05:27:36.368Z,14.37
2023-02-08T05:30:07.380Z,21.27
2023-02-08T05:32:37.387Z,15.83
2023-02-08T05:35:07.818Z,29.87
2023-02-08T05:37:40.497Z,28.87
2023-02-08T05:40:13.268Z,47.73
2023-02-08T05:42:44.591Z,32.50
2023-02-08T05:45:14.967Z,32.00
2023-02-08T05:47:47.441Z,28.97
2023-02-08T05:50:17.886Z,23.83
2023-02-08T05:52:50.530Z,29.07
2023-02-08T05:55:21.009Z,23.63
2023-02-08T05:57:51.181Z,21.30
2023-02-08T06:00:21.647Z,23.27
2023-02-08T06:02:51.852Z,21.60
2023-02-08T06:05:21.910Z,20.60
2023-02-08T06:07:54.539Z,16.83
2023-02-08T06:10:24.529Z,17.00
2023-02-08T06:12:54.867Z,23.10
2023-02-08T06:15:24.941Z,23.87
2023-02-08T06:17:55.274Z,24.03
2023-02-08T06:20:25.391Z,17.60
2023-02-08T06:22:58.516Z,20.93
2023-02-08T06:25:28.639Z,22.67
2023-02-08T06:27:58.749Z,19.80
2023-02-08T06:30:28.818Z,19.27
2023-02-08T06:32:58.941Z,26.03
2023-02-08T06:35:28.960Z,22.80
2023-02-08T06:38:01.775Z,22.77
2023-02-08T06:40:31.765Z,15.60
2023-02-08T06:43:01.871Z,15.80
2023-02-08T06:45:31.910Z,18.47
2023-02-08T06:48:02.076Z,24.13
2023-02-08T06:50:32.291Z,25.03
2023-02-08T06:53:04.860Z,24.27
2023-02-08T06:55:34.994Z,26.57
2023-02-08T06:58:04.979Z,18.50
2023-02-08T07:00:35.000Z,28.57
2023-02-08T07:03:04.978Z,23.30
2023-02-08T07:05:37.354Z,27.00
2023-02-08T07:08:11.096Z,22.50
2023-02-08T07:10:44.147Z,24.55
2023-02-08T07:13:15.207Z,24.42
2023-02-08T07:15:45.205Z,21.30
2023-02-08T07:18:15.243Z,26.13
2023-02-08T07:20:45.254Z,19.10
2023-02-08T07:23:17.823Z,24.33
2023-02-08T07:25:47.884Z,18.73
2023-02-08T07:28:17.895Z,22.03
2023-02-08T07:30:47.944Z,20.33
2023-02-08T07:33:18.030Z,25.40
2023-02-08T07:35:48.350Z,21.47
2023-02-08T07:38:21.302Z,24.00
2023-02-08T07:40:51.389Z,33.07
2023-02-08T07:43:21.438Z,23.10
2023-02-08T07:45:59.575Z,19.93
2023-02-08T07:48:29.630Z,18.73
2023-02-08T07:50:59.908Z,20.13
2023-02-08T07:53:33.067Z,23.30
2023-02-08T07:56:03.092Z,22.03
2023-02-08T07:58:33.332Z,29.57
2023-02-08T08:01:19.673Z,30.40
2023-02-08T08:03:52.732Z,24.87
2023-02-08T08:06:23.623Z,20.97
2023-02-08T08:08:56.372Z,22.03
2023-02-08T08:11:26.449Z,22.43
2023-02-08T08:13:56.493Z,25.63
2023-02-08T08:16:26.530Z,27.33
2023-02-08T08:18:56.592Z,27.00
2023-02-08T08:21:26.544Z,22.70
2023-02-08T08:23:59.178Z,24.57
2023-02-08T08:26:29.841Z,20.20
2023-02-08T08:28:59.855Z,29.03
2023-02-08T08:31:30.708Z,29.90
2023-02-08T08:34:01.108Z,21.83
2023-02-08T08:36:31.160Z,22.70
2023-02-08T08:39:03.724Z,28.53
2023-02-08T08:41:33.884Z,22.60
2023-02-08T08:44:04.007Z,27.43
2023-02-08T08:46:34.117Z,25.17
2023-02-08T08:49:04.343Z,26.37
2023-02-08T08:51:35.555Z,29.77
2023-02-08T08:54:08.992Z,24.10
2023-02-08T08:56:39.004Z,30.43
2023-02-08T08:59:08.976Z,25.80
2023-02-08T09:01:40.195Z,26.30
2023-02-08T09:04:10.362Z,25.30
2023-02-08T09:06:40.918Z,20.93
2023-02-08T09:09:14.394Z,24.33
2023-02-08T09:11:44.517Z,19.90
2023-02-08T09:14:14.961Z,20.63
2023-02-08T09:16:48.075Z,23.83
2023-02-08T09:19:18.889Z,24.37
2023-02-08T09:21:49.193Z,25.63
2023-02-08T09:24:22.104Z,18.90
2023-02-08T09:26:52.180Z,23.87
2023-02-08T09:29:22.352Z,23.50
2023-02-08T09:31:52.294Z,26.33
2023-02-08T09:34:22.750Z,25.37
2023-02-08T09:36:52.931Z,21.53
2023-02-08T09:39:27.385Z,22.57
2023-02-08T09:47:23.146Z,18.98
2023-02-08T09:49:59.966Z,16.80
2023-02-08T09:52:35.912Z,25.37
2023-02-08T09:55:20.219Z,19.50
2023-02-08T09:57:51.636Z,15.63
2023-02-08T10:00:27.596Z,20.37
2023-02-08T10:03:01.979Z,19.17
2023-02-08T10:08:04.472Z,14.23
2023-02-08T10:10:46.383Z,18.10
2023-02-08T10:13:43.576Z,17.10
2023-02-08T10:16:22.488Z,15.17
2023-02-08T10:18:59.076Z,15.00
2023-02-08T10:21:42.352Z,17.37
2023-02-08T10:24:32.422Z,19.00
2023-02-08T10:27:16.147Z,16.17
2023-02-08T10:30:17.696Z,24.83
2023-02-08T10:32:55.932Z,15.37
2023-02-08T10:35:32.237Z,21.20
2023-02-08T10:38:02.202Z,19.83
2023-02-08T10:40:40.533Z,17.23
2023-02-08T10:43:24.401Z,18.00
2023-02-08T10:45:59.051Z,15.03
2023-02-08T10:48:41.185Z,20.13
2023-02-08T10:51:16.882Z,19.50
2023-02-08T10:53:46.949Z,19.33
2023-02-08T10:56:34.873Z,23.83
2023-02-08T10:59:16.795Z,18.13
2023-02-08T11:01:48.869Z,21.00
2023-02-08T11:04:20.235Z,15.47
2023-02-08T11:06:54.186Z,20.77
2023-02-08T11:09:27.593Z,17.35
2023-02-08T11:11:59.396Z,15.60
2023-02-08T11:14:46.852Z,24.43
2023-02-08T11:17:29.922Z,17.73
2023-02-08T11:20:01.879Z,19.73
2023-02-08T11:22:35.076Z,20.83
2023-02-08T11:25:07.418Z,17.50
2023-02-08T11:27:40.555Z,19.97
2023-02-08T11:30:22.014Z,15.20
2023-02-08T11:32:53.223Z,16.90
2023-02-08T11:35:24.382Z,18.27
2023-02-08T11:37:55.650Z,13.80
2023-02-08T11:40:28.107Z,18.83
2023-02-08T11:42:58.865Z,18.53
2023-02-08T11:45:33.585Z,16.13
2023-02-08T11:48:05.804Z,14.97
2023-02-08T11:50:38.687Z,17.30
2023-02-08T11:53:09.993Z,19.23
2023-02-08T11:55:40.676Z,15.67
2023-02-08T11:58:22.348Z,16.27
2023-02-08T12:01:03.720Z,18.77
2023-02-08T12:03:36.263Z,21.83
2023-02-08T12:06:14.739Z,15.65
2023-02-08T12:08:52.600Z,18.58
2023-02-08T12:11:26.247Z,14.55
2023-02-08T12:14:08.696Z,17.67
2023-02-08T12:16:53.441Z,19.55
2023-02-08T12:19:56.105Z,15.60
2023-02-08T12:22:28.119Z,16.33
2023-02-08T12:25:10.033Z,19.27
2023-02-08T12:27:45.676Z,16.27
2023-02-08T12:30:24.157Z,16.83
2023-02-08T12:33:06.940Z,14.95
2023-02-08T12:36:03.091Z,14.88
2023-02-08T12:39:18.498Z,18.10
2023-02-08T12:41:57.676Z,15.57
2023-02-08T12:44:38.724Z,20.58
2023-02-08T12:47:23.163Z,19.13
2023-02-08T12:50:00.859Z,14.68
2023-02-08T12:52:39.042Z,16.30
2023-02-08T12:55:17.467Z,15.97
2023-02-08T12:57:53.025Z,15.88
2023-02-08T13:00:24.900Z,16.33
2023-02-08T13:03:04.004Z,13.98
2023-02-08T13:05:38.309Z,17.52
2023-02-08T13:08:13.012Z,17.35
2023-02-08T13:10:44.142Z,17.42
2023-02-08T13:13:20.907Z,16.70
2023-02-08T13:15:55.564Z,17.48
2023-02-08T13:18:31.223Z,14.57
2023-02-08T13:21:08.549Z,11.05
2023-02-08T13:23:52.077Z,13.50
2023-02-08T13:26:26.755Z,15.20
2023-02-08T13:29:01.407Z,13.20
2023-02-08T13:31:36.156Z,15.27
2023-02-08T13:34:09.383Z,16.38
2023-02-08T13:36:45.187Z,15.43
2023-02-08T13:39:35.037Z,13.35
2023-02-08T13:42:07.639Z,13.98
2023-02-08T13:44:39.391Z,12.80
2023-02-08T13:47:10.587Z,16.67
2023-02-08T13:49:55.028Z,14.98
2023-02-08T13:52:48.150Z,13.15
2023-02-08T13:55:46.759Z,15.15
2023-02-08T13:58:31.552Z,15.63
2023-02-08T14:03:33.557Z,13.32
2023-02-08T14:06:05.328Z,16.48
2023-02-08T14:08:43.381Z,15.38
2023-02-08T14:11:20.237Z,13.23
2023-02-08T14:13:52.247Z,17.38
2023-02-08T14:16:33.955Z,12.35
2023-02-08T14:19:05.405Z,16.87
2023-02-08T14:21:37.380Z,15.18
2023-02-08T14:24:08.528Z,21.20
2023-02-08T14:26:41.610Z,15.87
2023-02-08T14:29:12.014Z,14.73
2023-02-08T14:31:43.957Z,15.70
2023-02-08T14:34:25.683Z,14.57
2023-02-08T14:37:02.979Z,17.07
2023-02-08T14:39:34.618Z,17.65
2023-02-08T14:42:09.044Z,15.50
2023-02-08T14:47:15.553Z,14.97
2023-02-08T14:49:47.632Z,13.93
2023-02-08T14:52:22.215Z,13.45
2023-02-08T14:54:54.986Z,16.47
2023-02-08T14:57:31.564Z,13.60
2023-02-08T15:00:02.647Z,19.60
2023-02-08T15:02:35.994Z,15.53
2023-02-08T15:05:10.194Z,16.53
2023-02-08T15:07:42.117Z,15.23
2023-02-08T15:10:16.662Z,15.33
2023-02-08T15:12:50.291Z,13.87
2023-02-08T15:15:28.340Z,15.32
2023-02-08T15:17:59.237Z,14.17
2023-02-08T15:20:31.008Z,17.00
2023-02-08T15:23:02.381Z,16.70
2023-02-08T15:25:33.974Z,15.13
2023-02-08T15:28:08.401Z,17.50
2023-02-08T15:33:13.782Z,14.60
2023-02-08T15:35:44.469Z,12.87
2023-02-08T15:38:18.267Z,15.00
2023-02-08T15:41:02.772Z,13.75
2023-02-08T15:43:36.098Z,16.40
2023-02-08T15:46:08.492Z,17.30
2023-02-08T15:48:41.293Z,12.77
2023-02-08T15:51:12.951Z,19.73
2023-02-08T15:53:44.089Z,15.07
2023-02-08T15:56:19.433Z,15.23
2023-02-08T15:58:57.941Z,13.57
2023-02-08T16:01:28.113Z,12.27
2023-02-08T16:04:02.696Z,14.33
2023-02-08T16:06:36.954Z,17.23
2023-02-08T16:09:07.512Z,10.70
2023-02-08T16:11:39.156Z,15.70
2023-02-08T16:14:17.549Z,14.60
2023-02-08T16:16:48.821Z,11.07
2023-02-08T16:19:29.749Z,16.97
2023-02-08T16:22:00.729Z,14.93
2023-02-08T16:24:30.978Z,16.90
2023-02-08T16:27:04.087Z,10.40
2023-02-08T16:29:39.245Z,13.53
2023-02-08T16:32:13.766Z,18.33
2023-02-08T16:34:44.144Z,16.83
2023-02-08T16:37:28.475Z,16.37
2023-02-08T16:39:59.566Z,26.52
2023-02-08T16:42:32.111Z,16.07
2023-02-08T16:45:17.638Z,17.03
2023-02-08T16:47:49.306Z,14.90
2023-02-08T16:50:20.909Z,16.90
2023-02-08T16:52:51.985Z,18.73
2023-02-08T16:55:23.353Z,17.70
2023-02-08T16:57:55.098Z,14.50
2023-02-08T17:00:29.578Z,19.43
2023-02-08T17:05:30.765Z,15.70
2023-02-08T17:08:01.401Z,15.37
2023-02-08T17:10:32.694Z,19.77
2023-02-08T17:13:19.383Z,18.67
2023-02-08T17:15:54.126Z,17.87
2023-02-08T17:18:25.027Z,21.75
2023-02-08T17:20:59.740Z,20.97
2023-02-08T17:23:30.265Z,20.90
2023-02-08T17:26:00.701Z,18.97
2023-02-08T17:28:31.778Z,17.13
2023-02-08T17:31:05.270Z,22.80
2023-02-08T17:33:40.076Z,17.10
2023-02-08T17:36:12.645Z,16.43
2023-02-08T17:38:43.150Z,16.47
2023-02-08T17:41:16.988Z,18.77
2023-02-08T17:43:48.852Z,17.83
2023-02-08T17:46:24.122Z,20.80
2023-02-08T17:48:54.475Z,18.07
2023-02-08T17:51:26.634Z,20.87
2023-02-08T17:53:57.179Z,18.03
2023-02-08T17:56:35.349Z,20.43
2023-02-08T17:59:06.439Z,21.93
2023-02-08T18:01:39.409Z,14.70
2023-02-08T18:04:11.252Z,20.80
2023-02-08T18:06:41.181Z,20.43
2023-02-08T18:09:11.390Z,25.60
2023-02-08T18:11:41.457Z,21.77
2023-02-08T18:14:12.196Z,21.13
2023-02-08T18:16:44.757Z,20.13
2023-02-08T18:19:14.787Z,21.23
2023-02-08T18:21:44.991Z,23.37
2023-02-08T18:24:14.970Z,30.60
2023-02-08T18:26:45.221Z,27.27
2023-02-08T18:29:15.477Z,24.50
2023-02-08T18:31:48.295Z,21.17
2023-02-08T18:34:18.999Z,28.57
2023-02-08T18:36:49.099Z,19.97
2023-02-08T18:39:23.132Z,25.10
2023-02-08T18:41:53.757Z,25.48
2023-02-08T18:44:24.202Z,20.57
2023-02-08T18:46:56.792Z,26.53
2023-02-08T18:49:27.117Z,22.27
2023-02-08T18:51:57.324Z,32.93
2023-02-08T18:54:27.709Z,26.27
2023-02-08T18:56:57.983Z,23.80
2023-02-08T18:59:28.163Z,29.77
2023-02-08T19:02:01.755Z,20.77
2023-02-08T19:04:32.278Z,23.52
2023-02-08T19:07:02.488Z,25.13
2023-02-08T19:09:32.439Z,29.67
2023-02-08T19:12:02.391Z,20.90
2023-02-08T19:14:32.444Z,25.00
2023-02-08T19:17:05.435Z,29.00
2023-02-08T19:19:35.655Z,27.70
2023-02-08T19:22:05.940Z,26.60
2023-02-08T19:24:35.870Z,23.47
2023-02-08T19:27:05.950Z,28.97
2023-02-08T19:29:36.716Z,27.07
2023-02-08T19:32:09.922Z,20.20
2023-02-08T19:34:39.900Z,29.17
2023-02-08T19:37:09.820Z,28.00
2023-02-08T19:39:40.127Z,31.33
2023-02-08T19:42:10.417Z,33.57
2023-02-08T19:44:40.918Z,28.93
2023-02-08T19:47:13.463Z,23.57
2023-02-08T19:49:43.679Z,25.73
2023-02-08T19:52:16.186Z,30.70
2023-02-08T19:54:46.425Z,33.63
2023-02-08T19:57:16.796Z,24.77
2023-02-08T19:59:47.610Z,66.20
2023-02-08T20:02:22.292Z,40.63
2023-02-08T20:04:52.656Z,40.30
2023-02-08T20:07:22.938Z,34.77
2023-02-08T20:09:53.157Z,65.57
2023-02-08T20:12:23.084Z,56.67
2023-02-08T20:14:53.329Z,54.17
2023-02-08T20:17:25.827Z,31.60
2023-02-08T20:19:55.765Z,23.83
2023-02-08T20:22:25.727Z,32.13
2023-02-08T20:24:55.834Z,24.33
2023-02-08T20:27:25.779Z,25.10
2023-02-08T20:29:58.278Z,22.33
2023-02-08T20:32:30.939Z,26.10
2023-02-08T20:35:01.142Z,26.13
2023-02-08T20:37:31.174Z,20.10
2023-02-08T20:40:01.470Z,28.03
2023-02-08T20:42:31.416Z,18.23
2023-02-08T20:45:01.661Z,23.67
2023-02-08T20:47:44.899Z,19.47
2023-02-08T20:50:19.523Z,19.13
2023-02-08T20:52:50.773Z,25.77
2023-02-08T20:55:20.889Z,22.03
2023-02-08T20:57:51.156Z,21.77
2023-02-08T21:00:26.002Z,21.40
2023-02-08T21:03:06.070Z,28.63
2023-02-08T21:05:36.428Z,22.43
2023-02-08T21:08:06.667Z,23.83
2023-02-08T21:10:39.163Z,22.40
2023-02-08T21:13:09.383Z,20.60
2023-02-08T21:15:44.422Z,18.07
2023-02-08T21:18:17.111Z,25.83
2023-02-08T21:20:47.341Z,19.90
2023-02-08T21:23:17.802Z,21.23
2023-02-08T21:25:47.835Z,18.23
2023-02-08T21:28:18.267Z,16.63
2023-02-08T21:30:48.929Z,22.03
2023-02-08T21:33:21.695Z,21.20
2023-02-08T21:35:52.133Z,21.93
2023-02-08T21:38:22.263Z,18.80
2023-02-08T21:40:52.534Z,21.40
2023-02-08T21:43:22.867Z,19.50
2023-02-08T21:45:53.193Z,22.83
2023-02-08T21:48:25.910Z,43.73
2023-02-08T21:51:08.604Z,24.90
2023-02-08T21:53:51.074Z,19.50
2023-02-08T21:56:21.076Z,21.90
2023-02-08T21:58:51.074Z,22.30
2023-02-08T22:01:21.035Z,20.60
2023-02-08T22:03:53.561Z,15.43
2023-02-08T22:06:23.599Z,19.50
2023-02-08T22:08:53.569Z,17.47
2023-02-08T22:11:23.634Z,19.93
2023-02-08T22:13:53.575Z,18.23
2023-02-08T22:16:23.703Z,18.93
2023-02-08T22:18:56.331Z,17.17
2023-02-08T22:21:26.318Z,16.87
2023-02-08T22:23:56.309Z,18.50
2023-02-08T22:26:26.392Z,13.67
2023-02-08T22:28:56.564Z,16.90
2023-02-08T22:31:27.242Z,16.57
2023-02-08T22:33:59.985Z,20.83
2023-02-08T22:36:30.126Z,19.63
2023-02-08T22:39:00.179Z,14.57
2023-02-08T22:41:30.273Z,18.20
2023-02-08T22:44:00.278Z,16.53
2023-02-08T22:46:30.565Z,24.83
2023-02-08T22:49:03.196Z,66.93
2023-02-08T22:51:33.198Z,60.03
2023-02-08T22:54:03.643Z,49.90
2023-02-08T22:56:33.634Z,39.63
2023-02-08T22:59:03.947Z,37.43
2023-02-08T23:01:33.930Z,20.50
2023-02-08T23:04:06.718Z,17.13
2023-02-08T23:06:36.965Z,21.87
2023-02-08T23:09:07.940Z,18.27
2023-02-08T23:11:37.973Z,16.83
2023-02-08T23:14:08.189Z,16.40
2023-02-08T23:16:38.254Z,16.03
2023-02-08T23:19:15.122Z,22.63
2023-02-08T23:21:45.474Z,25.60
2023-02-08T23:24:15.451Z,44.43
2023-02-08T23:26:45.393Z,21.13
2023-02-08T23:29:15.385Z,30.53
2023-02-08T23:31:45.930Z,30.00
2023-02-08T23:34:18.547Z,22.40
2023-02-08T23:36:48.601Z,24.43
2023-02-08T23:39:18.778Z,21.27
2023-02-08T23:41:48.770Z,16.20
2023-02-08T23:44:18.728Z,25.47
2023-02-08T23:46:48.704Z,23.13
2023-02-08T23:49:21.440Z,19.27
2023-02-08T23:51:51.400Z,14.87
2023-02-08T23:54:21.360Z,16.30
2023-02-08T23:56:52.019Z,14.83
2023-02-08T23:59:21.937Z,15.43
